createdAt,value
2023-07-24T00:02:15.147Z,48.12
2023-07-24T00:04:43.042Z,48.36
2023-07-24T00:07:12.300Z,48.37
2023-07-24T00:09:40.367Z,48.25
2023-07-24T00:12:09.285Z,48.57
2023-07-24T00:14:37.205Z,48.22
2023-07-24T00:17:05.273Z,48.61
2023-07-24T00:19:33.309Z,48.36
2023-07-24T00:22:01.210Z,48.41
2023-07-24T00:24:32.174Z,49.10
2023-07-24T00:27:00.303Z,48.38
2023-07-24T00:29:28.190Z,48.33
2023-07-24T00:31:56.295Z,48.39
2023-07-24T00:34:24.170Z,48.32
2023-07-24T00:36:52.421Z,47.99
2023-07-24T00:39:20.275Z,48.02
2023-07-24T00:41:49.509Z,48.05
2023-07-24T00:44:17.390Z,48.30
2023-07-24T00:46:45.375Z,48.16
2023-07-24T00:49:15.209Z,48.15
2023-07-24T00:51:43.365Z,48.21
2023-07-24T00:54:11.266Z,48.04
2023-07-24T00:56:39.521Z,48.14
2023-07-24T00:59:08.751Z,48.39
2023-07-24T01:01:38.764Z,48.20
2023-07-24T01:04:08.130Z,48.15
2023-07-24T01:06:36.162Z,48.40
2023-07-24T01:09:05.052Z,48.60
2023-07-24T01:11:39.310Z,48.89
2023-07-24T01:14:15.797Z,49.07
2023-07-24T01:16:44.771Z,48.47
2023-07-24T01:19:18.196Z,48.62
2023-07-24T01:22:03.439Z,48.93
2023-07-24T01:24:36.135Z,48.89
2023-07-24T01:27:06.200Z,48.62
2023-07-24T01:29:34.042Z,48.47
2023-07-24T01:32:02.085Z,48.66
2023-07-24T01:34:30.048Z,48.56
2023-07-24T01:36:58.171Z,48.84
2023-07-24T01:39:26.399Z,49.11
2023-07-24T01:41:54.266Z,48.93
2023-07-24T01:44:23.562Z,48.79
2023-07-24T01:46:51.502Z,48.98
2023-07-24T01:49:19.507Z,49.51
2023-07-24T01:51:47.342Z,49.26
2023-07-24T01:54:15.172Z,49.15
2023-07-24T01:56:42.990Z,49.09
2023-07-24T01:59:10.859Z,49.54
2023-07-24T02:01:40.169Z,49.35
2023-07-24T02:04:08.040Z,49.15
2023-07-24T02:06:35.999Z,49.22
2023-07-24T02:09:03.930Z,49.53
2023-07-24T02:11:31.721Z,49.66
2023-07-24T02:14:00.401Z,49.70
2023-07-24T02:16:28.794Z,49.23
2023-07-24T02:18:58.294Z,49.96
2023-07-24T02:21:26.132Z,49.84
2023-07-24T02:23:56.448Z,49.93
2023-07-24T02:26:24.316Z,50.14
2023-07-24T02:28:52.204Z,50.15
2023-07-24T02:31:20.188Z,49.81
2023-07-24T02:33:48.074Z,49.59
2023-07-24T02:36:17.509Z,49.99
2023-07-24T02:38:45.752Z,49.74
2023-07-24T02:41:13.819Z,49.72
2023-07-24T02:43:41.944Z,49.56
2023-07-24T02:46:10.145Z,49.60
2023-07-24T02:48:38.231Z,50.27
2023-07-24T02:51:06.249Z,49.81
2023-07-24T02:53:35.610Z,49.94
2023-07-24T02:56:04.426Z,49.86
2023-07-24T02:58:32.554Z,50.33
2023-07-24T03:01:05.410Z,50.53
2023-07-24T03:03:33.602Z,50.59
2023-07-24T03:06:01.625Z,50.31
2023-07-24T03:08:29.796Z,50.40
2023-07-24T03:10:59.389Z,50.08
2023-07-24T03:13:28.540Z,50.33
2023-07-24T03:15:58.406Z,50.18
2023-07-24T03:18:27.434Z,50.40
2023-07-24T03:20:55.672Z,50.62
2023-07-24T03:23:23.837Z,50.77
2023-07-24T03:25:51.859Z,50.42
2023-07-24T03:28:21.381Z,50.27
2023-07-24T03:30:49.558Z,50.84
2023-07-24T03:33:18.596Z,50.38
2023-07-24T03:35:46.584Z,50.62
2023-07-24T03:38:14.709Z,50.61
2023-07-24T03:40:42.690Z,50.47
2023-07-24T03:43:11.325Z,50.40
2023-07-24T03:45:40.971Z,50.89
2023-07-24T03:48:09.261Z,50.40
2023-07-24T03:50:39.155Z,50.63
2023-07-24T03:53:07.457Z,50.71
2023-07-24T03:55:35.597Z,50.42
2023-07-24T03:58:03.674Z,50.59
2023-07-24T04:00:31.809Z,50.60
2023-07-24T04:03:01.430Z,50.50
2023-07-24T04:05:29.522Z,50.74
2023-07-24T04:07:57.804Z,50.63
2023-07-24T04:10:25.994Z,50.77
2023-07-24T04:12:54.176Z,50.12
2023-07-24T04:15:22.708Z,50.65
2023-07-24T04:17:50.909Z,50.54
2023-07-24T04:20:20.560Z,50.62
2023-07-24T04:22:48.943Z,50.84
2023-07-24T04:25:17.202Z,50.96
2023-07-24T04:27:45.414Z,50.40
2023-07-24T04:30:14.178Z,50.86
2023-07-24T04:32:42.440Z,50.77
2023-07-24T04:35:10.879Z,50.22
2023-07-24T04:37:43.367Z,50.69
2023-07-24T04:40:11.820Z,51.28
2023-07-24T04:42:40.032Z,50.50
2023-07-24T04:45:09.419Z,49.99
2023-07-24T04:47:38.105Z,50.44
2023-07-24T04:50:07.134Z,50.44
2023-07-24T04:52:35.002Z,50.40
2023-07-24T04:55:04.425Z,50.63
2023-07-24T04:57:32.316Z,50.56
2023-07-24T05:00:00.201Z,50.31
2023-07-24T05:02:28.149Z,50.44
2023-07-24T05:04:56.035Z,50.90
2023-07-24T05:07:23.910Z,50.46
2023-07-24T05:09:51.866Z,50.68
2023-07-24T05:12:21.243Z,50.78
2023-07-24T05:14:49.247Z,50.97
2023-07-24T05:17:17.062Z,50.93
2023-07-24T05:19:45.018Z,51.05
2023-07-24T05:22:12.852Z,51.16
2023-07-24T05:24:40.862Z,51.11
2023-07-24T05:27:08.794Z,50.88
2023-07-24T05:29:38.119Z,51.38
2023-07-24T05:32:07.017Z,51.13
2023-07-24T05:34:34.826Z,51.11
2023-07-24T05:37:02.751Z,51.39
2023-07-24T05:39:31.873Z,51.12
2023-07-24T05:41:59.877Z,51.29
2023-07-24T05:44:27.732Z,51.39
2023-07-24T05:46:56.999Z,51.35
2023-07-24T05:49:24.921Z,51.47
2023-07-24T05:51:53.848Z,51.04
2023-07-24T05:54:21.919Z,51.44
2023-07-24T05:56:49.752Z,51.47
2023-07-24T05:59:17.644Z,51.27
2023-07-24T06:01:45.841Z,51.67
2023-07-24T06:04:15.193Z,51.51
2023-07-24T06:06:43.231Z,51.46
2023-07-24T06:09:11.081Z,51.67
2023-07-24T06:11:38.893Z,51.32
2023-07-24T06:14:06.768Z,51.43
2023-07-24T06:16:34.804Z,51.39
2023-07-24T06:19:02.792Z,50.95
2023-07-24T06:21:31.988Z,51.25
2023-07-24T06:23:59.933Z,50.94
2023-07-24T06:26:28.181Z,50.84
2023-07-24T06:28:56.265Z,50.71
2023-07-24T06:31:24.206Z,50.44
2023-07-24T06:33:52.174Z,50.04
2023-07-24T06:36:20.020Z,49.92
2023-07-24T06:38:49.765Z,49.93
2023-07-24T06:41:17.640Z,50.11
2023-07-24T06:43:45.559Z,50.27
2023-07-24T06:46:13.408Z,50.10
2023-07-24T06:48:41.259Z,49.87
2023-07-24T06:51:09.104Z,49.63
2023-07-24T06:53:37.006Z,49.55
2023-07-24T06:56:06.336Z,49.43
2023-07-24T06:58:34.287Z,49.04
2023-07-24T07:01:02.244Z,49.11
2023-07-24T07:03:30.265Z,48.69
2023-07-24T07:06:01.195Z,48.52
2023-07-24T07:08:29.315Z,48.50
2023-07-24T07:10:58.238Z,48.79
2023-07-24T07:13:28.245Z,48.24
2023-07-24T07:15:56.220Z,48.45
2023-07-24T07:18:24.176Z,47.99
2023-07-24T07:20:53.233Z,48.01
2023-07-24T07:23:21.459Z,48.10
2023-07-24T07:25:50.380Z,47.59
2023-07-24T07:28:18.966Z,47.54
2023-07-24T07:30:48.212Z,47.25
2023-07-24T07:33:16.642Z,47.42
2023-07-24T07:35:45.083Z,47.18
2023-07-24T07:38:12.883Z,47.02
2023-07-24T07:40:41.067Z,47.40
2023-07-24T07:43:08.942Z,47.19
2023-07-24T07:45:36.779Z,46.97
2023-07-24T07:48:06.817Z,46.86
2023-07-24T07:50:34.755Z,46.91
2023-07-24T07:53:02.573Z,47.28
2023-07-24T07:55:30.442Z,47.20
2023-07-24T07:58:00.447Z,46.67
2023-07-24T08:00:28.289Z,47.07
2023-07-24T08:02:56.219Z,46.79
2023-07-24T08:05:25.596Z,46.51
2023-07-24T08:07:53.512Z,46.47
2023-07-24T08:10:21.589Z,46.44
2023-07-24T08:12:49.523Z,45.85
2023-07-24T08:15:17.676Z,46.00
2023-07-24T08:17:45.680Z,45.85
2023-07-24T08:20:13.755Z,45.72
2023-07-24T08:22:43.020Z,45.75
2023-07-24T08:25:11.026Z,45.91
2023-07-24T08:27:54.462Z,46.08
2023-07-24T08:30:22.927Z,45.58
2023-07-24T08:32:52.110Z,45.86
2023-07-24T08:35:20.112Z,46.00
2023-07-24T08:37:49.337Z,45.84
2023-07-24T08:40:18.207Z,45.60
2023-07-24T08:42:46.227Z,45.48
2023-07-24T08:45:15.438Z,45.33
2023-07-24T08:47:45.091Z,45.22
2023-07-24T08:50:13.551Z,45.12
2023-07-24T08:52:43.248Z,44.64
2023-07-24T08:55:12.769Z,44.55
2023-07-24T08:57:40.599Z,44.73
2023-07-24T09:00:09.451Z,44.41
2023-07-24T09:02:38.005Z,44.32
2023-07-24T09:05:07.181Z,44.13
2023-07-24T09:07:35.097Z,44.35
2023-07-24T09:10:03.013Z,44.08
2023-07-24T09:12:32.361Z,44.23
2023-07-24T09:15:06.621Z,43.83
2023-07-24T09:17:35.260Z,43.92
2023-07-24T09:20:05.002Z,43.97
2023-07-24T09:22:34.761Z,44.09
2023-07-24T09:25:04.705Z,44.04
2023-07-24T09:27:34.498Z,43.97
2023-07-24T09:30:03.920Z,43.68
2023-07-24T09:32:32.869Z,44.08
2023-07-24T09:35:01.092Z,44.08
2023-07-24T09:37:30.234Z,44.11
2023-07-24T09:40:00.137Z,44.23
2023-07-24T09:42:32.409Z,44.08
2023-07-24T09:45:01.961Z,44.40
2023-07-24T09:47:52.749Z,44.42
2023-07-24T09:50:18.306Z,44.13
2023-07-24T09:52:48.562Z,44.41
2023-07-24T09:55:23.967Z,44.31
2023-07-24T09:57:55.758Z,44.26
2023-07-24T10:00:25.595Z,44.34
2023-07-24T10:02:53.725Z,44.41
2023-07-24T10:05:21.987Z,44.44
2023-07-24T10:07:50.360Z,44.19
2023-07-24T10:10:18.393Z,44.21
2023-07-24T10:12:46.799Z,44.19
2023-07-24T10:15:15.711Z,43.88
2023-07-24T10:17:45.234Z,43.74
2023-07-24T10:20:14.352Z,43.83
2023-07-24T10:22:44.393Z,43.62
2023-07-24T10:25:12.979Z,43.46
2023-07-24T10:27:44.052Z,43.49
2023-07-24T10:30:27.319Z,43.66
2023-07-24T10:33:06.150Z,42.96
2023-07-24T10:35:39.900Z,43.10
2023-07-24T10:38:07.899Z,43.09
2023-07-24T10:40:36.304Z,42.91
2023-07-24T10:43:07.745Z,42.89
2023-07-24T10:45:49.319Z,42.61
2023-07-24T10:48:19.089Z,43.26
2023-07-24T10:50:51.547Z,42.96
2023-07-24T10:53:23.240Z,42.91
2023-07-24T10:55:53.756Z,42.79
2023-07-24T10:58:21.635Z,43.03
2023-07-24T11:00:49.612Z,43.04
2023-07-24T11:03:19.462Z,42.94
2023-07-24T11:05:49.085Z,43.17
2023-07-24T11:08:18.517Z,43.02
2023-07-24T11:10:48.412Z,42.96
2023-07-24T11:13:16.583Z,42.83
2023-07-24T11:15:45.867Z,42.80
2023-07-24T11:18:14.237Z,42.36
2023-07-24T11:20:47.945Z,41.94
2023-07-24T11:23:16.916Z,42.05
2023-07-24T11:25:45.452Z,42.11
2023-07-24T11:28:15.511Z,41.76
2023-07-24T11:30:44.342Z,41.86
2023-07-24T11:33:16.119Z,41.80
2023-07-24T11:35:47.252Z,41.69
2023-07-24T11:38:16.153Z,42.48
2023-07-24T11:40:46.406Z,42.07
2023-07-24T11:43:19.386Z,42.93
2023-07-24T11:45:49.780Z,42.26
2023-07-24T11:48:17.815Z,42.28
2023-07-24T11:50:48.752Z,42.27
2023-07-24T11:53:24.841Z,42.92
2023-07-24T11:55:53.732Z,43.14
2023-07-24T11:58:22.491Z,42.99
2023-07-24T12:00:52.846Z,43.15
2023-07-24T12:03:22.808Z,43.32
2023-07-24T12:05:52.423Z,43.79
2023-07-24T12:08:24.608Z,44.23
2023-07-24T12:10:52.643Z,44.42
2023-07-24T12:13:22.031Z,44.65
2023-07-24T12:15:50.369Z,44.90
2023-07-24T12:18:18.526Z,45.30
2023-07-24T12:20:46.462Z,45.70
2023-07-24T12:23:15.753Z,46.56
2023-07-24T12:25:43.597Z,47.14
2023-07-24T12:28:11.532Z,47.28
2023-07-24T12:30:39.721Z,47.24
2023-07-24T12:33:07.578Z,47.61
2023-07-24T12:35:35.459Z,47.81
2023-07-24T12:38:03.379Z,48.24
2023-07-24T12:40:32.655Z,48.92
2023-07-24T12:43:00.484Z,49.22
2023-07-24T12:45:28.506Z,49.16
2023-07-24T12:47:57.157Z,49.07
2023-07-24T12:50:25.659Z,49.17
2023-07-24T12:52:53.483Z,48.68
2023-07-24T12:55:21.887Z,48.56
2023-07-24T12:57:51.054Z,47.83
2023-07-24T13:00:19.165Z,47.75
2023-07-24T13:02:47.104Z,48.23
2023-07-24T13:05:15.097Z,47.85
2023-07-24T13:07:43.008Z,47.68
2023-07-24T13:10:11.601Z,47.62
2023-07-24T13:12:39.482Z,47.63
2023-07-24T13:15:09.555Z,46.99
2023-07-24T13:17:38.193Z,47.05
2023-07-24T13:20:07.608Z,46.75
2023-07-24T13:22:35.496Z,47.07
2023-07-24T13:25:03.856Z,46.75
2023-07-24T13:27:31.686Z,46.55
2023-07-24T13:29:59.563Z,46.21
2023-07-24T13:32:30.906Z,46.30
2023-07-24T13:34:59.996Z,46.16
2023-07-24T13:37:27.869Z,46.07
2023-07-24T13:39:55.793Z,46.22
2023-07-24T13:42:23.646Z,46.22
2023-07-24T13:44:51.862Z,46.19
2023-07-24T13:47:19.736Z,45.96
2023-07-24T13:49:49.025Z,45.90
2023-07-24T13:52:17.051Z,46.34
2023-07-24T13:54:45.015Z,46.50
2023-07-24T13:57:12.884Z,46.42
2023-07-24T13:59:41.495Z,46.06
2023-07-24T14:02:09.501Z,45.97
2023-07-24T14:04:37.585Z,45.79
2023-07-24T14:07:07.169Z,45.59
2023-07-24T14:09:36.006Z,45.50
2023-07-24T14:12:03.953Z,45.68
2023-07-24T14:14:32.597Z,45.39
2023-07-24T14:17:00.440Z,44.98
2023-07-24T14:19:28.340Z,44.94
2023-07-24T14:21:56.138Z,44.96
2023-07-24T14:24:25.518Z,44.55
2023-07-24T14:26:53.425Z,44.92
2023-07-24T14:29:21.331Z,44.67
2023-07-24T14:31:49.231Z,44.57
2023-07-24T14:34:17.391Z,44.45
2023-07-24T14:36:45.197Z,44.53
2023-07-24T14:39:13.174Z,43.96
2023-07-24T14:41:42.569Z,44.11
2023-07-24T14:44:10.468Z,44.17
2023-07-24T14:46:38.440Z,44.28
2023-07-24T14:49:06.409Z,44.13
2023-07-24T14:51:34.847Z,44.38
2023-07-24T14:54:02.846Z,44.58
2023-07-24T14:56:43.941Z,44.72
2023-07-24T14:59:19.977Z,44.78
2023-07-24T15:01:47.879Z,44.91
2023-07-24T15:04:15.723Z,44.90
2023-07-24T15:06:43.620Z,44.95
2023-07-24T15:09:12.552Z,44.98
2023-07-24T15:11:40.822Z,45.41
2023-07-24T15:14:08.763Z,45.76
2023-07-24T15:16:38.062Z,45.34
2023-07-24T15:19:06.038Z,45.32
2023-07-24T15:21:35.410Z,45.14
2023-07-24T15:24:03.273Z,45.25
2023-07-24T15:26:31.234Z,45.42
2023-07-24T15:28:59.140Z,45.29
2023-07-24T15:31:27.313Z,45.39
2023-07-24T15:33:56.534Z,45.13
2023-07-24T15:36:24.351Z,45.19
2023-07-24T15:38:52.216Z,45.07
2023-07-24T15:41:20.136Z,45.11
2023-07-24T15:43:47.968Z,44.80
2023-07-24T15:46:18.174Z,44.44
2023-07-24T15:48:46.359Z,44.27
2023-07-24T15:51:15.656Z,44.00
2023-07-24T15:53:43.511Z,43.38
2023-07-24T15:56:12.950Z,43.15
2023-07-24T15:58:46.925Z,42.82
2023-07-24T16:01:17.885Z,42.96
2023-07-24T16:03:46.729Z,43.00
2023-07-24T16:06:16.807Z,42.41
2023-07-24T16:08:45.354Z,42.01
2023-07-24T16:11:15.853Z,41.95
2023-07-24T16:13:45.318Z,42.04
2023-07-24T16:16:16.898Z,41.72
2023-07-24T16:18:46.340Z,41.52
2023-07-24T16:21:14.337Z,41.78
2023-07-24T16:23:43.803Z,41.54
2023-07-24T16:26:11.644Z,41.95
2023-07-24T16:28:40.270Z,42.05
2023-07-24T16:31:49.208Z,41.31
2023-07-24T16:34:38.121Z,41.70
2023-07-24T16:37:12.595Z,41.52
2023-07-24T16:39:50.783Z,41.70
2023-07-24T16:47:15.495Z,42.46
2023-07-24T16:49:43.501Z,42.00
2023-07-24T16:52:11.367Z,42.49
2023-07-24T16:54:39.198Z,42.72
2023-07-24T16:57:09.072Z,42.85
2023-07-24T16:59:36.947Z,43.02
2023-07-24T17:02:04.943Z,43.16
2023-07-24T17:04:32.797Z,44.03
2023-07-24T17:07:01.998Z,44.09
2023-07-24T17:09:29.888Z,44.02
2023-07-24T17:11:57.724Z,45.02
2023-07-24T17:14:26.990Z,44.87
2023-07-24T17:16:54.927Z,44.46
2023-07-24T17:19:23.535Z,44.81
2023-07-24T17:21:51.431Z,44.75
2023-07-24T17:24:19.492Z,44.70
2023-07-24T17:26:47.441Z,44.85
2023-07-24T17:29:15.384Z,45.03
2023-07-24T17:31:45.092Z,45.25
2023-07-24T17:34:12.926Z,45.15
2023-07-24T17:36:40.797Z,45.46
2023-07-24T17:39:08.700Z,45.47
2023-07-24T17:41:36.530Z,45.06
2023-07-24T17:44:04.433Z,45.03
2023-07-24T17:46:32.446Z,45.10
2023-07-24T17:49:01.782Z,45.06
2023-07-24T17:51:29.997Z,45.41
2023-07-24T17:53:59.750Z,45.68
2023-07-24T17:56:27.666Z,45.35
2023-07-24T17:58:55.616Z,45.46
2023-07-24T18:01:23.551Z,46.11
2023-07-24T18:03:51.501Z,46.29
2023-07-24T18:06:20.730Z,46.19
2023-07-24T18:08:48.747Z,46.03
2023-07-24T18:11:16.589Z,46.26
2023-07-24T18:13:44.671Z,46.26
2023-07-24T18:16:12.599Z,46.06
2023-07-24T18:18:40.491Z,46.18
2023-07-24T18:21:09.164Z,46.20
2023-07-24T18:23:38.822Z,45.82
2023-07-24T18:26:06.705Z,46.28
2023-07-24T18:28:34.753Z,45.82
2023-07-24T18:31:02.723Z,46.15
2023-07-24T18:33:31.322Z,46.37
2023-07-24T18:35:59.199Z,46.84
2023-07-24T18:38:27.221Z,46.59
2023-07-24T18:40:56.433Z,46.19
2023-07-24T18:43:24.526Z,46.36
2023-07-24T18:45:52.516Z,46.32
2023-07-24T18:48:20.648Z,46.64
2023-07-24T18:50:48.456Z,46.63
2023-07-24T18:53:17.949Z,46.67
2023-07-24T18:55:45.979Z,46.78
2023-07-24T18:58:15.257Z,46.78
2023-07-24T19:00:43.087Z,46.54
2023-07-24T19:03:12.139Z,46.81
2023-07-24T19:05:40.048Z,46.35
2023-07-24T19:08:08.031Z,46.79
2023-07-24T19:10:36.315Z,46.54
2023-07-24T19:13:04.236Z,46.56
2023-07-24T19:15:33.531Z,46.75
2023-07-24T19:18:01.409Z,46.55
2023-07-24T19:20:31.508Z,46.94
2023-07-24T19:22:59.436Z,46.97
2023-07-24T19:25:27.291Z,47.24
2023-07-24T19:27:55.207Z,47.15
2023-07-24T19:30:23.139Z,47.09
2023-07-24T19:32:52.451Z,47.11
2023-07-24T19:35:21.049Z,47.24
2023-07-24T19:37:48.954Z,47.04
2023-07-24T19:40:16.883Z,47.00
2023-07-24T19:42:44.804Z,47.15
2023-07-24T19:45:12.888Z,47.15
2023-07-24T19:47:40.958Z,47.42
2023-07-24T19:50:10.864Z,47.27
2023-07-24T19:52:38.846Z,47.19
2023-07-24T19:55:09.725Z,47.01
2023-07-24T19:57:39.109Z,47.03
2023-07-24T20:00:08.563Z,47.06
2023-07-24T20:02:36.522Z,47.31
2023-07-24T20:05:04.533Z,47.41
2023-07-24T20:07:33.852Z,47.55
2023-07-24T20:10:01.913Z,47.81
2023-07-24T20:12:29.822Z,47.70
2023-07-24T20:14:57.767Z,47.67
2023-07-24T20:17:25.733Z,47.74
2023-07-24T20:19:53.608Z,47.33
2023-07-24T20:22:21.482Z,47.43
2023-07-24T20:24:50.784Z,47.68
2023-07-24T20:27:18.800Z,47.78
2023-07-24T20:29:46.644Z,47.75
2023-07-24T20:32:15.094Z,47.80
2023-07-24T20:34:43.137Z,48.11
2023-07-24T20:37:11.002Z,48.06
2023-07-24T20:39:38.867Z,47.66
2023-07-24T20:42:08.410Z,48.30
2023-07-24T20:44:36.224Z,48.13
2023-07-24T20:47:04.292Z,47.83
2023-07-24T20:49:35.157Z,47.87
2023-07-24T20:52:03.156Z,47.77
2023-07-24T20:54:30.987Z,48.25
2023-07-24T20:56:59.341Z,47.95
2023-07-24T20:59:28.786Z,48.27
2023-07-24T21:01:56.794Z,48.00
2023-07-24T21:04:24.769Z,48.49
2023-07-24T21:06:52.771Z,48.16
2023-07-24T21:09:21.354Z,48.52
2023-07-24T21:11:49.277Z,48.18
2023-07-24T21:14:17.317Z,48.70
2023-07-24T21:16:46.767Z,48.54
2023-07-24T21:19:14.677Z,48.76
2023-07-24T21:21:42.597Z,48.56
2023-07-24T21:24:10.550Z,48.32
2023-07-24T21:26:38.631Z,48.20
2023-07-24T21:29:06.537Z,48.76
2023-07-24T21:31:34.887Z,48.33
2023-07-24T21:34:04.350Z,48.53
2023-07-24T21:36:32.332Z,48.40
2023-07-24T21:39:00.210Z,48.22
2023-07-24T21:41:30.798Z,48.42
2023-07-24T21:43:58.941Z,48.11
2023-07-24T21:46:26.964Z,47.86
2023-07-24T21:48:54.926Z,48.25
2023-07-24T21:51:24.162Z,48.04
2023-07-24T21:53:52.019Z,48.01
2023-07-24T21:56:19.982Z,47.52
2023-07-24T21:58:49.099Z,48.00
2023-07-24T22:01:21.096Z,48.06
2023-07-24T22:03:49.317Z,48.22
2023-07-24T22:06:17.232Z,47.42
2023-07-24T22:08:46.623Z,47.35
2023-07-24T22:11:15.894Z,47.53
2023-07-24T22:13:44.866Z,47.21
2023-07-24T22:16:12.905Z,47.41
2023-07-24T22:18:40.936Z,47.37
2023-07-24T22:21:08.906Z,47.45
2023-07-24T22:23:37.160Z,47.31
2023-07-24T22:26:06.470Z,47.38
2023-07-24T22:28:34.486Z,47.40
2023-07-24T22:31:08.666Z,47.22
2023-07-24T22:33:36.762Z,47.22
2023-07-24T22:36:05.350Z,47.66
2023-07-24T22:38:33.395Z,47.65
2023-07-24T22:41:08.716Z,47.47
2023-07-24T22:43:38.154Z,47.05
2023-07-24T22:46:06.232Z,47.25
2023-07-24T22:48:34.238Z,47.73
2023-07-24T22:51:02.385Z,47.68
2023-07-24T22:53:30.371Z,47.37
2023-07-24T22:55:58.219Z,46.75
2023-07-24T22:58:26.633Z,46.84
2023-07-24T23:00:55.849Z,46.84
2023-07-24T23:03:23.869Z,47.03
2023-07-24T23:05:51.903Z,47.01
2023-07-24T23:08:19.829Z,47.29
2023-07-24T23:10:51.515Z,47.35
2023-07-24T23:13:19.888Z,47.37
2023-07-24T23:15:47.775Z,47.38
2023-07-24T23:18:17.222Z,47.02
2023-07-24T23:20:45.415Z,46.97
2023-07-24T23:23:13.320Z,47.29
2023-07-24T23:25:41.098Z,47.57
2023-07-24T23:28:09.024Z,46.91
2023-07-24T23:30:41.087Z,47.33
2023-07-24T23:33:09.107Z,46.85
2023-07-24T23:35:38.400Z,47.07
2023-07-24T23:38:06.286Z,47.16
2023-07-24T23:40:34.134Z,46.70
2023-07-24T23:43:02.120Z,47.11
2023-07-24T23:45:33.697Z,47.21
2023-07-24T23:48:01.693Z,47.40
2023-07-24T23:50:29.822Z,47.22
2023-07-24T23:52:59.986Z,47.04
2023-07-24T23:55:31.301Z,47.01
2023-07-24T23:57:59.221Z,47.01
